sensor_id;sensor_type;location;lat;lon;timestamp;P1;durP1;ratioP1;P2;durP2;ratioP2
10465;SDS011;5280;42.600;23.556;2022-10-16T00:01:25;4.67;;;2.80;;
10465;SDS011;5280;42.600;23.556;2022-10-16T00:03:52;3.50;;;3.00;;
10465;SDS011;5280;42.600;23.556;2022-10-16T00:06:21;3.80;;;2.80;;
10465;SDS011;5280;42.600;23.556;2022-10-16T00:08:48;3.30;;;3.00;;
10465;SDS011;5280;42.600;23.556;2022-10-16T00:11:18;3.83;;;2.90;;
10465;SDS011;5280;42.600;23.556;2022-10-16T00:13:46;4.93;;;3.00;;
10465;SDS011;5280;42.600;23.556;2022-10-16T00:16:14;3.13;;;2.83;;
10465;SDS011;5280;42.600;23.556;2022-10-16T00:18:42;4.57;;;3.17;;
10465;SDS011;5280;42.600;23.556;2022-10-16T00:21:10;4.00;;;3.20;;
10465;SDS011;5280;42.600;23.556;2022-10-16T00:23:38;3.43;;;3.13;;
10465;SDS011;5280;42.600;23.556;2022-10-16T00:26:06;5.10;;;2.97;;
10465;SDS011;5280;42.600;23.556;2022-10-16T00:28:36;3.47;;;3.17;;
10465;SDS011;5280;42.600;23.556;2022-10-16T00:31:03;3.73;;;3.30;;
10465;SDS011;5280;42.600;23.556;2022-10-16T00:33:31;3.73;;;3.37;;
10465;SDS011;5280;42.600;23.556;2022-10-16T00:35:58;2.90;;;2.70;;
10465;SDS011;5280;42.600;23.556;2022-10-16T00:38:25;5.27;;;3.13;;
10465;SDS011;5280;42.600;23.556;2022-10-16T00:40:52;3.87;;;3.10;;
10465;SDS011;5280;42.600;23.556;2022-10-16T00:43:37;4.00;;;3.20;;
10465;SDS011;5280;42.600;23.556;2022-10-16T00:46:09;3.50;;;2.90;;
10465;SDS011;5280;42.600;23.556;2022-10-16T00:48:40;3.83;;;3.17;;
10465;SDS011;5280;42.600;23.556;2022-10-16T00:51:12;5.03;;;3.10;;
10465;SDS011;5280;42.600;23.556;2022-10-16T00:53:38;3.27;;;2.97;;
10465;SDS011;5280;42.600;23.556;2022-10-16T00:56:05;4.33;;;3.10;;
10465;SDS011;5280;42.600;23.556;2022-10-16T00:58:32;4.13;;;3.40;;
10465;SDS011;5280;42.600;23.556;2022-10-16T01:01:01;3.50;;;3.03;;
10465;SDS011;5280;42.600;23.556;2022-10-16T01:03:29;3.43;;;3.13;;
10465;SDS011;5280;42.600;23.556;2022-10-16T01:08:49;3.37;;;3.07;;
10465;SDS011;5280;42.600;23.556;2022-10-16T01:11:27;5.20;;;3.50;;
10465;SDS011;5280;42.600;23.556;2022-10-16T01:14:00;3.93;;;3.53;;
10465;SDS011;5280;42.600;23.556;2022-10-16T01:16:34;5.87;;;3.57;;
10465;SDS011;5280;42.600;23.556;2022-10-16T01:19:08;3.97;;;3.27;;
10465;SDS011;5280;42.600;23.556;2022-10-16T01:21:39;4.27;;;3.50;;
10465;SDS011;5280;42.600;23.556;2022-10-16T01:24:11;3.87;;;3.00;;
10465;SDS011;5280;42.600;23.556;2022-10-16T01:27:06;3.87;;;3.47;;
10465;SDS011;5280;42.600;23.556;2022-10-16T01:29:39;4.23;;;3.90;;
10465;SDS011;5280;42.600;23.556;2022-10-16T01:32:14;4.40;;;3.90;;
10465;SDS011;5280;42.600;23.556;2022-10-16T01:34:46;5.00;;;3.80;;
10465;SDS011;5280;42.600;23.556;2022-10-16T01:37:21;5.27;;;3.53;;
10465;SDS011;5280;42.600;23.556;2022-10-16T01:39:55;4.23;;;3.83;;
10465;SDS011;5280;42.600;23.556;2022-10-16T01:42:28;4.87;;;3.90;;
10465;SDS011;5280;42.600;23.556;2022-10-16T01:45:00;4.07;;;3.73;;
10465;SDS011;5280;42.600;23.556;2022-10-16T01:47:31;4.77;;;4.27;;
10465;SDS011;5280;42.600;23.556;2022-10-16T01:50:01;4.00;;;3.70;;
10465;SDS011;5280;42.600;23.556;2022-10-16T01:52:30;4.30;;;3.40;;
10465;SDS011;5280;42.600;23.556;2022-10-16T01:55:00;3.97;;;3.50;;
10465;SDS011;5280;42.600;23.556;2022-10-16T01:57:31;5.87;;;4.40;;
10465;SDS011;5280;42.600;23.556;2022-10-16T02:00:05;4.47;;;3.97;;
10465;SDS011;5280;42.600;23.556;2022-10-16T02:02:34;4.60;;;4.20;;
10465;SDS011;5280;42.600;23.556;2022-10-16T02:05:04;5.33;;;4.57;;
10465;SDS011;5280;42.600;23.556;2022-10-16T02:07:37;5.27;;;4.77;;
10465;SDS011;5280;42.600;23.556;2022-10-16T02:10:04;7.63;;;4.70;;
10465;SDS011;5280;42.600;23.556;2022-10-16T02:12:33;4.60;;;4.30;;
10465;SDS011;5280;42.600;23.556;2022-10-16T02:15:05;4.63;;;4.23;;
10465;SDS011;5280;42.600;23.556;2022-10-16T02:17:32;5.03;;;4.53;;
10465;SDS011;5280;42.600;23.556;2022-10-16T02:19:59;4.77;;;4.37;;
10465;SDS011;5280;42.600;23.556;2022-10-16T02:22:27;4.97;;;4.13;;
10465;SDS011;5280;42.600;23.556;2022-10-16T02:24:58;5.00;;;4.50;;
10465;SDS011;5280;42.600;23.556;2022-10-16T02:27:31;5.03;;;4.53;;
10465;SDS011;5280;42.600;23.556;2022-10-16T02:30:05;6.23;;;4.40;;
10465;SDS011;5280;42.600;23.556;2022-10-16T02:32:39;5.53;;;4.50;;
10465;SDS011;5280;42.600;23.556;2022-10-16T02:35:08;5.53;;;4.43;;
10465;SDS011;5280;42.600;23.556;2022-10-16T02:37:36;4.93;;;4.43;;
10465;SDS011;5280;42.600;23.556;2022-10-16T02:40:07;4.73;;;4.07;;
10465;SDS011;5280;42.600;23.556;2022-10-16T02:42:36;4.40;;;4.00;;
10465;SDS011;5280;42.600;23.556;2022-10-16T02:45:06;5.23;;;4.70;;
10465;SDS011;5280;42.600;23.556;2022-10-16T02:47:34;4.63;;;4.23;;
10465;SDS011;5280;42.600;23.556;2022-10-16T02:50:03;4.70;;;4.03;;
10465;SDS011;5280;42.600;23.556;2022-10-16T02:52:31;5.70;;;4.67;;
10465;SDS011;5280;42.600;23.556;2022-10-16T02:54:57;5.37;;;4.50;;
10465;SDS011;5280;42.600;23.556;2022-10-16T02:57:24;6.00;;;4.40;;
10465;SDS011;5280;42.600;23.556;2022-10-16T02:59:52;4.90;;;4.10;;
10465;SDS011;5280;42.600;23.556;2022-10-16T03:02:19;4.53;;;4.13;;
10465;SDS011;5280;42.600;23.556;2022-10-16T03:04:46;4.47;;;4.07;;
10465;SDS011;5280;42.600;23.556;2022-10-16T03:07:13;4.90;;;4.40;;
10465;SDS011;5280;42.600;23.556;2022-10-16T03:09:40;6.47;;;4.27;;
10465;SDS011;5280;42.600;23.556;2022-10-16T03:12:07;5.63;;;4.50;;
10465;SDS011;5280;42.600;23.556;2022-10-16T03:14:33;5.97;;;4.33;;
10465;SDS011;5280;42.600;23.556;2022-10-16T03:17:02;5.00;;;4.40;;
10465;SDS011;5280;42.600;23.556;2022-10-16T03:19:29;6.07;;;4.20;;
10465;SDS011;5280;42.600;23.556;2022-10-16T03:21:55;4.70;;;4.20;;
10465;SDS011;5280;42.600;23.556;2022-10-16T03:24:22;4.63;;;4.23;;
10465;SDS011;5280;42.600;23.556;2022-10-16T03:26:49;4.67;;;4.27;;
10465;SDS011;5280;42.600;23.556;2022-10-16T03:29:16;5.97;;;4.37;;
10465;SDS011;5280;42.600;23.556;2022-10-16T03:31:42;4.53;;;4.13;;
10465;SDS011;5280;42.600;23.556;2022-10-16T03:34:10;5.83;;;4.30;;
10465;SDS011;5280;42.600;23.556;2022-10-16T03:36:37;6.60;;;4.23;;
10465;SDS011;5280;42.600;23.556;2022-10-16T03:39:04;5.40;;;4.57;;
10465;SDS011;5280;42.600;23.556;2022-10-16T03:41:31;6.90;;;4.50;;
10465;SDS011;5280;42.600;23.556;2022-10-16T03:43:58;6.03;;;4.30;;
10465;SDS011;5280;42.600;23.556;2022-10-16T03:46:24;4.77;;;4.37;;
10465;SDS011;5280;42.600;23.556;2022-10-16T03:48:51;4.90;;;4.47;;
10465;SDS011;5280;42.600;23.556;2022-10-16T03:51:19;6.67;;;4.23;;
10465;SDS011;5280;42.600;23.556;2022-10-16T03:53:46;5.03;;;4.40;;
10465;SDS011;5280;42.600;23.556;2022-10-16T03:56:13;7.23;;;4.67;;
10465;SDS011;5280;42.600;23.556;2022-10-16T03:58:40;5.60;;;5.10;;
10465;SDS011;5280;42.600;23.556;2022-10-16T04:01:07;5.57;;;4.77;;
10465;SDS011;5280;42.600;23.556;2022-10-16T04:03:34;5.50;;;4.60;;
10465;SDS011;5280;42.600;23.556;2022-10-16T04:06:01;5.03;;;4.53;;
10465;SDS011;5280;42.600;23.556;2022-10-16T04:08:29;4.93;;;4.47;;
10465;SDS011;5280;42.600;23.556;2022-10-16T04:10:59;6.90;;;5.03;;
10465;SDS011;5280;42.600;23.556;2022-10-16T04:13:26;5.17;;;4.67;;
10465;SDS011;5280;42.600;23.556;2022-10-16T04:15:52;5.23;;;4.73;;
10465;SDS011;5280;42.600;23.556;2022-10-16T04:18:19;6.90;;;5.00;;
10465;SDS011;5280;42.600;23.556;2022-10-16T04:20:46;5.47;;;5.00;;
10465;SDS011;5280;42.600;23.556;2022-10-16T04:23:13;6.73;;;4.53;;
10465;SDS011;5280;42.600;23.556;2022-10-16T04:25:41;5.10;;;4.60;;
10465;SDS011;5280;42.600;23.556;2022-10-16T04:28:08;6.57;;;4.80;;
10465;SDS011;5280;42.600;23.556;2022-10-16T04:30:37;5.17;;;4.70;;
10465;SDS011;5280;42.600;23.556;2022-10-16T04:33:04;6.00;;;4.60;;
10465;SDS011;5280;42.600;23.556;2022-10-16T04:35:33;6.80;;;4.77;;
10465;SDS011;5280;42.600;23.556;2022-10-16T04:38:00;4.93;;;4.40;;
10465;SDS011;5280;42.600;23.556;2022-10-16T04:40:27;5.03;;;4.53;;
10465;SDS011;5280;42.600;23.556;2022-10-16T04:42:55;4.90;;;4.50;;
10465;SDS011;5280;42.600;23.556;2022-10-16T04:45:22;5.33;;;4.83;;
10465;SDS011;5280;42.600;23.556;2022-10-16T04:47:48;4.80;;;4.23;;
10465;SDS011;5280;42.600;23.556;2022-10-16T04:50:16;5.17;;;4.67;;
10465;SDS011;5280;42.600;23.556;2022-10-16T04:52:42;5.47;;;5.00;;
10465;SDS011;5280;42.600;23.556;2022-10-16T04:55:09;5.67;;;4.90;;
10465;SDS011;5280;42.600;23.556;2022-10-16T04:57:36;5.30;;;4.80;;
10465;SDS011;5280;42.600;23.556;2022-10-16T05:00:05;5.90;;;4.80;;
10465;SDS011;5280;42.600;23.556;2022-10-16T05:02:33;4.60;;;3.97;;
10465;SDS011;5280;42.600;23.556;2022-10-16T05:05:00;5.40;;;5.00;;
10465;SDS011;5280;42.600;23.556;2022-10-16T05:07:26;6.07;;;4.20;;
10465;SDS011;5280;42.600;23.556;2022-10-16T05:09:53;5.73;;;4.60;;
10465;SDS011;5280;42.600;23.556;2022-10-16T05:12:20;6.10;;;5.50;;
10465;SDS011;5280;42.600;23.556;2022-10-16T05:14:47;6.73;;;4.60;;
10465;SDS011;5280;42.600;23.556;2022-10-16T05:17:15;4.87;;;4.47;;
10465;SDS011;5280;42.600;23.556;2022-10-16T05:19:42;5.40;;;4.90;;
10465;SDS011;5280;42.600;23.556;2022-10-16T05:22:09;6.17;;;5.03;;
10465;SDS011;5280;42.600;23.556;2022-10-16T05:24:36;5.10;;;4.60;;
10465;SDS011;5280;42.600;23.556;2022-10-16T05:27:03;7.07;;;4.90;;
10465;SDS011;5280;42.600;23.556;2022-10-16T05:29:29;5.23;;;4.83;;
10465;SDS011;5280;42.600;23.556;2022-10-16T05:31:57;5.37;;;4.87;;
10465;SDS011;5280;42.600;23.556;2022-10-16T05:34:25;5.00;;;4.60;;
10465;SDS011;5280;42.600;23.556;2022-10-16T05:36:54;5.43;;;4.93;;
10465;SDS011;5280;42.600;23.556;2022-10-16T05:39:21;5.20;;;4.80;;
10465;SDS011;5280;42.600;23.556;2022-10-16T05:41:49;5.47;;;4.97;;
10465;SDS011;5280;42.600;23.556;2022-10-16T05:44:16;5.13;;;4.63;;
10465;SDS011;5280;42.600;23.556;2022-10-16T05:46:43;4.73;;;4.33;;
10465;SDS011;5280;42.600;23.556;2022-10-16T05:49:09;4.73;;;4.33;;
10465;SDS011;5280;42.600;23.556;2022-10-16T05:51:38;5.13;;;4.50;;
10465;SDS011;5280;42.600;23.556;2022-10-16T05:54:05;5.43;;;4.80;;
10465;SDS011;5280;42.600;23.556;2022-10-16T05:56:31;5.30;;;4.67;;
10465;SDS011;5280;42.600;23.556;2022-10-16T05:59:02;8.00;;;5.20;;
10465;SDS011;5280;42.600;23.556;2022-10-16T06:01:29;6.10;;;5.13;;
10465;SDS011;5280;42.600;23.556;2022-10-16T06:03:56;5.10;;;4.43;;
10465;SDS011;5280;42.600;23.556;2022-10-16T06:06:25;4.90;;;4.47;;
10465;SDS011;5280;42.600;23.556;2022-10-16T06:08:55;5.53;;;4.77;;
10465;SDS011;5280;42.600;23.556;2022-10-16T06:11:25;5.23;;;4.60;;
10465;SDS011;5280;42.600;23.556;2022-10-16T06:13:54;6.20;;;4.90;;
10465;SDS011;5280;42.600;23.556;2022-10-16T06:16:22;5.30;;;4.80;;
10465;SDS011;5280;42.600;23.556;2022-10-16T06:18:50;7.83;;;5.10;;
10465;SDS011;5280;42.600;23.556;2022-10-16T06:21:18;5.83;;;4.87;;
10465;SDS011;5280;42.600;23.556;2022-10-16T06:23:46;5.20;;;4.70;;
10465;SDS011;5280;42.600;23.556;2022-10-16T06:26:18;5.20;;;4.80;;
10465;SDS011;5280;42.600;23.556;2022-10-16T06:28:55;6.63;;;5.17;;
10465;SDS011;5280;42.600;23.556;2022-10-16T06:31:23;8.43;;;7.57;;
10465;SDS011;5280;42.600;23.556;2022-10-16T06:33:54;7.30;;;6.37;;
10465;SDS011;5280;42.600;23.556;2022-10-16T06:36:21;7.20;;;5.93;;
10465;SDS011;5280;42.600;23.556;2022-10-16T06:38:48;6.93;;;5.80;;
10465;SDS011;5280;42.600;23.556;2022-10-16T06:41:17;9.73;;;7.30;;
10465;SDS011;5280;42.600;23.556;2022-10-16T06:43:46;8.23;;;7.40;;
10465;SDS011;5280;42.600;23.556;2022-10-16T06:46:13;10.67;;;7.73;;
10465;SDS011;5280;42.600;23.556;2022-10-16T06:48:42;10.47;;;7.50;;
10465;SDS011;5280;42.600;23.556;2022-10-16T06:51:09;7.73;;;6.97;;
10465;SDS011;5280;42.600;23.556;2022-10-16T06:53:40;9.77;;;7.80;;
10465;SDS011;5280;42.600;23.556;2022-10-16T06:56:09;9.40;;;8.00;;
10465;SDS011;5280;42.600;23.556;2022-10-16T06:58:38;11.93;;;8.40;;
10465;SDS011;5280;42.600;23.556;2022-10-16T07:01:06;10.80;;;8.17;;
10465;SDS011;5280;42.600;23.556;2022-10-16T07:03:35;9.10;;;8.00;;
10465;SDS011;5280;42.600;23.556;2022-10-16T07:06:03;11.93;;;8.70;;
10465;SDS011;5280;42.600;23.556;2022-10-16T07:08:31;10.77;;;8.87;;
10465;SDS011;5280;42.600;23.556;2022-10-16T07:10:59;9.27;;;7.93;;
10465;SDS011;5280;42.600;23.556;2022-10-16T07:13:26;8.57;;;7.67;;
10465;SDS011;5280;42.600;23.556;2022-10-16T07:15:55;11.67;;;8.20;;
10465;SDS011;5280;42.600;23.556;2022-10-16T07:18:21;10.00;;;7.63;;
10465;SDS011;5280;42.600;23.556;2022-10-16T07:20:51;9.20;;;8.20;;
10465;SDS011;5280;42.600;23.556;2022-10-16T07:23:19;9.50;;;8.03;;
10465;SDS011;5280;42.600;23.556;2022-10-16T07:25:53;9.33;;;7.23;;
10465;SDS011;5280;42.600;23.556;2022-10-16T07:28:21;7.70;;;6.50;;
10465;SDS011;5280;42.600;23.556;2022-10-16T07:30:47;8.43;;;7.30;;
10465;SDS011;5280;42.600;23.556;2022-10-16T07:33:16;8.27;;;7.37;;
10465;SDS011;5280;42.600;23.556;2022-10-16T07:35:49;7.50;;;6.60;;
10465;SDS011;5280;42.600;23.556;2022-10-16T07:38:17;7.80;;;6.83;;
10465;SDS011;5280;42.600;23.556;2022-10-16T07:40:44;9.30;;;6.33;;
10465;SDS011;5280;42.600;23.556;2022-10-16T07:43:11;8.37;;;5.97;;
10465;SDS011;5280;42.600;23.556;2022-10-16T07:45:40;6.20;;;5.60;;
10465;SDS011;5280;42.600;23.556;2022-10-16T07:48:13;7.13;;;5.63;;
10465;SDS011;5280;42.600;23.556;2022-10-16T07:50:41;7.23;;;5.60;;
10465;SDS011;5280;42.600;23.556;2022-10-16T07:53:08;7.53;;;6.43;;
10465;SDS011;5280;42.600;23.556;2022-10-16T07:55:35;7.60;;;6.30;;
10465;SDS011;5280;42.600;23.556;2022-10-16T07:58:02;7.93;;;6.37;;
10465;SDS011;5280;42.600;23.556;2022-10-16T08:00:30;9.10;;;6.53;;
10465;SDS011;5280;42.600;23.556;2022-10-16T08:02:57;6.93;;;6.33;;
10465;SDS011;5280;42.600;23.556;2022-10-16T08:05:25;8.03;;;7.23;;
10465;SDS011;5280;42.600;23.556;2022-10-16T08:07:54;9.43;;;7.00;;
10465;SDS011;5280;42.600;23.556;2022-10-16T08:10:21;9.23;;;6.63;;
10465;SDS011;5280;42.600;23.556;2022-10-16T08:12:49;6.40;;;5.83;;
10465;SDS011;5280;42.600;23.556;2022-10-16T08:15:16;8.83;;;5.40;;
10465;SDS011;5280;42.600;23.556;2022-10-16T08:17:43;5.67;;;5.17;;
10465;SDS011;5280;42.600;23.556;2022-10-16T08:20:10;6.37;;;5.57;;
10465;SDS011;5280;42.600;23.556;2022-10-16T08:22:37;5.20;;;4.70;;
10465;SDS011;5280;42.600;23.556;2022-10-16T08:25:06;5.33;;;4.80;;
10465;SDS011;5280;42.600;23.556;2022-10-16T08:27:33;7.57;;;5.20;;
10465;SDS011;5280;42.600;23.556;2022-10-16T08:30:00;8.30;;;4.90;;
10465;SDS011;5280;42.600;23.556;2022-10-16T08:32:29;6.77;;;4.70;;
10465;SDS011;5280;42.600;23.556;2022-10-16T08:34:56;6.90;;;4.93;;
10465;SDS011;5280;42.600;23.556;2022-10-16T08:37:23;5.20;;;4.70;;
10465;SDS011;5280;42.600;23.556;2022-10-16T08:39:50;7.43;;;4.90;;
10465;SDS011;5280;42.600;23.556;2022-10-16T08:42:27;6.20;;;4.40;;
10465;SDS011;5280;42.600;23.556;2022-10-16T08:45:10;4.90;;;4.33;;
10465;SDS011;5280;42.600;23.556;2022-10-16T08:47:48;5.03;;;4.53;;
10465;SDS011;5280;42.600;23.556;2022-10-16T08:50:19;6.17;;;4.30;;
10465;SDS011;5280;42.600;23.556;2022-10-16T08:52:50;4.90;;;4.30;;
10465;SDS011;5280;42.600;23.556;2022-10-16T08:55:25;5.27;;;4.30;;
10465;SDS011;5280;42.600;23.556;2022-10-16T08:57:59;4.83;;;4.40;;
10465;SDS011;5280;42.600;23.556;2022-10-16T09:00:26;6.97;;;4.73;;
10465;SDS011;5280;42.600;23.556;2022-10-16T09:02:56;5.13;;;4.10;;
10465;SDS011;5280;42.600;23.556;2022-10-16T09:05:36;4.83;;;4.33;;
10465;SDS011;5280;42.600;23.556;2022-10-16T09:08:16;4.70;;;3.70;;
10465;SDS011;5280;42.600;23.556;2022-10-16T09:10:56;5.87;;;4.70;;
10465;SDS011;5280;42.600;23.556;2022-10-16T09:13:31;4.93;;;4.43;;
10465;SDS011;5280;42.600;23.556;2022-10-16T09:16:07;7.93;;;4.13;;
10465;SDS011;5280;42.600;23.556;2022-10-16T09:18:43;5.30;;;3.90;;
10465;SDS011;5280;42.600;23.556;2022-10-16T09:21:16;4.97;;;4.10;;
10465;SDS011;5280;42.600;23.556;2022-10-16T09:23:47;6.80;;;4.30;;
10465;SDS011;5280;42.600;23.556;2022-10-16T09:26:15;6.00;;;4.17;;
10465;SDS011;5280;42.600;23.556;2022-10-16T09:28:46;6.90;;;4.17;;
10465;SDS011;5280;42.600;23.556;2022-10-16T09:31:13;3.93;;;3.63;;
10465;SDS011;5280;42.600;23.556;2022-10-16T09:33:43;3.90;;;3.60;;
10465;SDS011;5280;42.600;23.556;2022-10-16T09:36:14;6.13;;;4.20;;
10465;SDS011;5280;42.600;23.556;2022-10-16T09:38:41;4.47;;;4.07;;
10465;SDS011;5280;42.600;23.556;2022-10-16T09:41:15;4.33;;;3.80;;
10465;SDS011;5280;42.600;23.556;2022-10-16T09:43:49;4.13;;;3.60;;
10465;SDS011;5280;42.600;23.556;2022-10-16T09:46:21;3.63;;;3.33;;
10465;SDS011;5280;42.600;23.556;2022-10-16T09:48:51;5.17;;;3.40;;
10465;SDS011;5280;42.600;23.556;2022-10-16T09:51:21;3.63;;;3.33;;
10465;SDS011;5280;42.600;23.556;2022-10-16T09:53:53;3.83;;;3.53;;
10465;SDS011;5280;42.600;23.556;2022-10-16T09:56:23;3.57;;;3.27;;
10465;SDS011;5280;42.600;23.556;2022-10-16T09:58:54;4.07;;;3.67;;
10465;SDS011;5280;42.600;23.556;2022-10-16T10:01:22;8.60;;;3.97;;
10465;SDS011;5280;42.600;23.556;2022-10-16T10:03:55;4.20;;;3.00;;
10465;SDS011;5280;42.600;23.556;2022-10-16T10:06:26;3.50;;;3.20;;
10465;SDS011;5280;42.600;23.556;2022-10-16T10:08:56;5.33;;;3.40;;
10465;SDS011;5280;42.600;23.556;2022-10-16T10:11:42;5.00;;;3.10;;
10465;SDS011;5280;42.600;23.556;2022-10-16T10:14:16;3.97;;;3.40;;
10465;SDS011;5280;42.600;23.556;2022-10-16T10:16:49;3.53;;;3.00;;
10465;SDS011;5280;42.600;23.556;2022-10-16T10:19:18;4.03;;;2.70;;
10465;SDS011;5280;42.600;23.556;2022-10-16T10:21:45;3.23;;;2.93;;
10465;SDS011;5280;42.600;23.556;2022-10-16T10:24:12;4.40;;;3.03;;
10465;SDS011;5280;42.600;23.556;2022-10-16T10:26:41;3.90;;;3.50;;
10465;SDS011;5280;42.600;23.556;2022-10-16T10:29:17;3.63;;;3.33;;
10465;SDS011;5280;42.600;23.556;2022-10-16T10:31:55;3.40;;;3.10;;
10465;SDS011;5280;42.600;23.556;2022-10-16T10:34:36;4.03;;;3.63;;
10465;SDS011;5280;42.600;23.556;2022-10-16T10:37:14;3.33;;;3.03;;
10465;SDS011;5280;42.600;23.556;2022-10-16T10:39:54;5.53;;;3.23;;
10465;SDS011;5280;42.600;23.556;2022-10-16T10:42:29;5.83;;;3.17;;
10465;SDS011;5280;42.600;23.556;2022-10-16T10:47:48;3.30;;;2.83;;
10465;SDS011;5280;42.600;23.556;2022-10-16T10:50:38;4.77;;;3.30;;
10465;SDS011;5280;42.600;23.556;2022-10-16T10:53:11;3.43;;;3.00;;
10465;SDS011;5280;42.600;23.556;2022-10-16T10:56:00;3.00;;;2.70;;
10465;SDS011;5280;42.600;23.556;2022-10-16T10:58:47;5.30;;;3.33;;
10465;SDS011;5280;42.600;23.556;2022-10-16T11:01:40;3.10;;;2.90;;
10465;SDS011;5280;42.600;23.556;2022-10-16T11:07:23;3.20;;;2.90;;
10465;SDS011;5280;42.600;23.556;2022-10-16T11:09:55;3.27;;;2.90;;
10465;SDS011;5280;42.600;23.556;2022-10-16T11:12:25;3.47;;;2.47;;
10465;SDS011;5280;42.600;23.556;2022-10-16T11:14:57;3.40;;;3.00;;
10465;SDS011;5280;42.600;23.556;2022-10-16T11:17:30;6.37;;;3.00;;
10465;SDS011;5280;42.600;23.556;2022-10-16T11:20:03;3.00;;;2.80;;
10465;SDS011;5280;42.600;23.556;2022-10-16T11:22:38;4.37;;;3.03;;
10465;SDS011;5280;42.600;23.556;2022-10-16T11:25:12;4.13;;;2.60;;
10465;SDS011;5280;42.600;23.556;2022-10-16T11:27:43;4.20;;;2.33;;
10465;SDS011;5280;42.600;23.556;2022-10-16T11:30:14;2.87;;;2.67;;
10465;SDS011;5280;42.600;23.556;2022-10-16T11:32:52;2.50;;;2.30;;
10465;SDS011;5280;42.600;23.556;2022-10-16T11:35:33;3.20;;;2.70;;
10465;SDS011;5280;42.600;23.556;2022-10-16T11:40:38;3.93;;;2.70;;
10465;SDS011;5280;42.600;23.556;2022-10-16T11:43:10;3.23;;;2.50;;
10465;SDS011;5280;42.600;23.556;2022-10-16T11:45:42;4.53;;;3.37;;
10465;SDS011;5280;42.600;23.556;2022-10-16T11:48:18;3.20;;;2.90;;
10465;SDS011;5280;42.600;23.556;2022-10-16T11:50:52;4.20;;;2.50;;
10465;SDS011;5280;42.600;23.556;2022-10-16T11:53:24;3.70;;;2.50;;
10465;SDS011;5280;42.600;23.556;2022-10-16T11:56:05;3.00;;;2.70;;
10465;SDS011;5280;42.600;23.556;2022-10-16T11:58:33;2.53;;;2.33;;
10465;SDS011;5280;42.600;23.556;2022-10-16T12:01:10;3.90;;;2.40;;
10465;SDS011;5280;42.600;23.556;2022-10-16T12:03:47;3.40;;;2.23;;
10465;SDS011;5280;42.600;23.556;2022-10-16T12:06:25;2.70;;;2.50;;
10465;SDS011;5280;42.600;23.556;2022-10-16T12:08:58;2.50;;;2.30;;
10465;SDS011;5280;42.600;23.556;2022-10-16T12:11:36;3.70;;;2.50;;
10465;SDS011;5280;42.600;23.556;2022-10-16T12:14:06;3.03;;;2.60;;
10465;SDS011;5280;42.600;23.556;2022-10-16T12:16:50;2.50;;;2.30;;
10465;SDS011;5280;42.600;23.556;2022-10-16T12:19:20;3.97;;;2.37;;
10465;SDS011;5280;42.600;23.556;2022-10-16T12:21:48;3.13;;;2.10;;
10465;SDS011;5280;42.600;23.556;2022-10-16T12:24:22;3.20;;;2.43;;
10465;SDS011;5280;42.600;23.556;2022-10-16T12:26:59;2.50;;;2.30;;
10465;SDS011;5280;42.600;23.556;2022-10-16T12:29:30;2.43;;;2.20;;
10465;SDS011;5280;42.600;23.556;2022-10-16T12:32:00;4.30;;;2.33;;
10465;SDS011;5280;42.600;23.556;2022-10-16T12:34:31;2.77;;;2.30;;
10465;SDS011;5280;42.600;23.556;2022-10-16T12:37:08;4.23;;;2.27;;
10465;SDS011;5280;42.600;23.556;2022-10-16T12:39:39;2.97;;;2.23;;
10465;SDS011;5280;42.600;23.556;2022-10-16T12:42:19;3.03;;;2.10;;
10465;SDS011;5280;42.600;23.556;2022-10-16T12:44:47;4.00;;;2.77;;
10465;SDS011;5280;42.600;23.556;2022-10-16T12:47:21;2.60;;;2.40;;
10465;SDS011;5280;42.600;23.556;2022-10-16T12:49:51;4.47;;;2.30;;
10465;SDS011;5280;42.600;23.556;2022-10-16T12:52:24;2.40;;;2.20;;
10465;SDS011;5280;42.600;23.556;2022-10-16T12:54:55;2.87;;;2.23;;
10465;SDS011;5280;42.600;23.556;2022-10-16T12:57:30;3.57;;;2.10;;
10465;SDS011;5280;42.600;23.556;2022-10-16T13:00:10;2.17;;;1.83;;
10465;SDS011;5280;42.600;23.556;2022-10-16T13:02:51;3.27;;;1.83;;
10465;SDS011;5280;42.600;23.556;2022-10-16T13:05:42;2.77;;;2.00;;
10465;SDS011;5280;42.600;23.556;2022-10-16T13:08:24;1.60;;;1.50;;
10465;SDS011;5280;42.600;23.556;2022-10-16T13:11:07;1.53;;;1.43;;
10465;SDS011;5280;42.600;23.556;2022-10-16T13:13:50;1.90;;;1.67;;
10465;SDS011;5280;42.600;23.556;2022-10-16T13:16:25;2.30;;;1.40;;
10465;SDS011;5280;42.600;23.556;2022-10-16T13:19:02;1.40;;;1.40;;
10465;SDS011;5280;42.600;23.556;2022-10-16T13:21:44;1.80;;;1.63;;
10465;SDS011;5280;42.600;23.556;2022-10-16T13:24:21;1.70;;;1.60;;
10465;SDS011;5280;42.600;23.556;2022-10-16T13:26:55;2.90;;;1.80;;
10465;SDS011;5280;42.600;23.556;2022-10-16T13:29:29;2.07;;;1.90;;
10465;SDS011;5280;42.600;23.556;2022-10-16T13:31:57;1.80;;;1.70;;
10465;SDS011;5280;42.600;23.556;2022-10-16T13:34:25;2.13;;;1.90;;
10465;SDS011;5280;42.600;23.556;2022-10-16T13:36:54;2.20;;;2.00;;
10465;SDS011;5280;42.600;23.556;2022-10-16T13:39:21;3.57;;;2.37;;
10465;SDS011;5280;42.600;23.556;2022-10-16T13:42:02;2.37;;;2.17;;
10465;SDS011;5280;42.600;23.556;2022-10-16T13:44:34;3.10;;;2.10;;
10465;SDS011;5280;42.600;23.556;2022-10-16T13:47:05;1.87;;;1.77;;
10465;SDS011;5280;42.600;23.556;2022-10-16T13:49:32;2.33;;;1.93;;
10465;SDS011;5280;42.600;23.556;2022-10-16T13:52:00;2.30;;;2.10;;
10465;SDS011;5280;42.600;23.556;2022-10-16T13:54:27;3.13;;;2.00;;
10465;SDS011;5280;42.600;23.556;2022-10-16T13:56:55;3.27;;;2.00;;
10465;SDS011;5280;42.600;23.556;2022-10-16T13:59:22;2.37;;;2.20;;
10465;SDS011;5280;42.600;23.556;2022-10-16T14:01:51;2.60;;;2.13;;
10465;SDS011;5280;42.600;23.556;2022-10-16T14:04:23;2.73;;;2.20;;
10465;SDS011;5280;42.600;23.556;2022-10-16T14:06:50;4.20;;;2.10;;
10465;SDS011;5280;42.600;23.556;2022-10-16T14:09:21;2.50;;;2.30;;
10465;SDS011;5280;42.600;23.556;2022-10-16T14:11:51;2.13;;;1.90;;
10465;SDS011;5280;42.600;23.556;2022-10-16T14:14:21;2.10;;;2.00;;
10465;SDS011;5280;42.600;23.556;2022-10-16T14:16:49;2.27;;;1.83;;
10465;SDS011;5280;42.600;23.556;2022-10-16T14:19:18;2.10;;;1.90;;
10465;SDS011;5280;42.600;23.556;2022-10-16T14:21:48;3.57;;;2.50;;
10465;SDS011;5280;42.600;23.556;2022-10-16T14:24:24;2.73;;;2.33;;
10465;SDS011;5280;42.600;23.556;2022-10-16T14:26:53;2.00;;;1.87;;
10465;SDS011;5280;42.600;23.556;2022-10-16T14:29:21;2.97;;;1.90;;
10465;SDS011;5280;42.600;23.556;2022-10-16T14:31:56;7.60;;;2.27;;
10465;SDS011;5280;42.600;23.556;2022-10-16T14:34:25;4.40;;;2.20;;
10465;SDS011;5280;42.600;23.556;2022-10-16T14:36:53;4.07;;;2.27;;
10465;SDS011;5280;42.600;23.556;2022-10-16T14:39:21;2.03;;;1.83;;
10465;SDS011;5280;42.600;23.556;2022-10-16T14:41:52;2.33;;;2.13;;
10465;SDS011;5280;42.600;23.556;2022-10-16T14:44:25;3.10;;;2.10;;
10465;SDS011;5280;42.600;23.556;2022-10-16T14:46:55;3.03;;;2.00;;
10465;SDS011;5280;42.600;23.556;2022-10-16T14:49:24;1.87;;;1.73;;
10465;SDS011;5280;42.600;23.556;2022-10-16T14:51:53;3.53;;;2.10;;
10465;SDS011;5280;42.600;23.556;2022-10-16T14:54:20;3.27;;;2.10;;
10465;SDS011;5280;42.600;23.556;2022-10-16T14:56:49;2.30;;;2.10;;
10465;SDS011;5280;42.600;23.556;2022-10-16T14:59:19;2.27;;;2.07;;
10465;SDS011;5280;42.600;23.556;2022-10-16T15:01:51;2.20;;;2.00;;
10465;SDS011;5280;42.600;23.556;2022-10-16T15:04:18;2.40;;;2.07;;
10465;SDS011;5280;42.600;23.556;2022-10-16T15:06:45;2.27;;;2.00;;
10465;SDS011;5280;42.600;23.556;2022-10-16T15:09:12;2.33;;;2.13;;
10465;SDS011;5280;42.600;23.556;2022-10-16T15:11:39;2.37;;;2.17;;
10465;SDS011;5280;42.600;23.556;2022-10-16T15:14:08;2.30;;;2.10;;
10465;SDS011;5280;42.600;23.556;2022-10-16T15:16:37;4.40;;;2.13;;
10465;SDS011;5280;42.600;23.556;2022-10-16T15:19:04;2.63;;;2.43;;